New York, New York
Traffic Map
Current Weather Conditions
New York, New York
Clear
Clear
84°
Feels Like: 86°
Wind Chill: 84° Ceiling: Unl
Heat Index: 86° Visibility: 10mi
Dew Point: 65° Wind: 7mph
Humidity: 53% Direction: ° ()
Pressure: 30.16in Gusts: 0mph
Raw Report DataKNYC 301751Z AUTO VRB06KT 10SM CLR 29/18 A3016 RMK AO2 SLP204 T02890183 10289 20217 58016
Traffic Incident Summary
Active as of:
Severity:
Category:
InformationThere was an issue retrieving the traffic information for this location. Please try a different location or try again shortly.
Advertisements
Track Severe Weather on mobile